sensor_id;sensor_type;location;lat;lon;timestamp;pressure;altitude;pressure_sealevel;temperature;humidity
68075;BME280;54864;52.002;5.468;2023-01-26T00:00:16;102416.97;;;1.63;83.61
68075;BME280;54864;52.002;5.468;2023-01-26T00:01:19;102414.22;;;1.53;83.59
68075;BME280;54864;52.002;5.468;2023-01-26T00:02:21;102417.63;;;1.49;83.92
68075;BME280;54864;52.002;5.468;2023-01-26T00:03:22;102421.91;;;1.47;84.09
68075;BME280;54864;52.002;5.468;2023-01-26T00:04:24;102421.06;;;1.48;84.04
68075;BME280;54864;52.002;5.468;2023-01-26T00:05:24;102424.47;;;1.46;84.06
68075;BME280;54864;52.002;5.468;2023-01-26T00:06:26;102418.34;;;1.42;83.89
68075;BME280;54864;52.002;5.468;2023-01-26T00:07:29;102417.38;;;1.36;84.44
68075;BME280;54864;52.002;5.468;2023-01-26T00:08:30;102406.25;;;1.44;84.39
68075;BME280;54864;52.002;5.468;2023-01-26T00:09:34;102407.28;;;1.54;84.19
68075;BME280;54864;52.002;5.468;2023-01-26T00:10:37;102409.81;;;1.49;84.14
68075;BME280;54864;52.002;5.468;2023-01-26T00:11:37;102396.81;;;1.48;83.84
68075;BME280;54864;52.002;5.468;2023-01-26T00:12:39;102402.94;;;1.53;83.98
68075;BME280;54864;52.002;5.468;2023-01-26T00:13:42;102412.50;;;1.54;83.99
68075;BME280;54864;52.002;5.468;2023-01-26T00:14:44;102404.72;;;1.55;83.50
68075;BME280;54864;52.002;5.468;2023-01-26T00:15:50;102401.03;;;1.43;83.55
68075;BME280;54864;52.002;5.468;2023-01-26T00:16:52;102400.22;;;1.45;83.71
68075;BME280;54864;52.002;5.468;2023-01-26T00:17:53;102399.34;;;1.45;83.75
68075;BME280;54864;52.002;5.468;2023-01-26T00:18:55;102396.88;;;1.52;83.78
68075;BME280;54864;52.002;5.468;2023-01-26T00:19:57;102389.97;;;1.54;83.43
68075;BME280;54864;52.002;5.468;2023-01-26T00:21:00;102400.97;;;1.38;83.75
68075;BME280;54864;52.002;5.468;2023-01-26T00:22:01;102406.09;;;1.35;84.35
68075;BME280;54864;52.002;5.468;2023-01-26T00:23:04;102401.13;;;1.47;84.19
68075;BME280;54864;52.002;5.468;2023-01-26T00:24:05;102398.59;;;1.52;84.22
68075;BME280;54864;52.002;5.468;2023-01-26T00:25:08;102389.91;;;1.50;83.95
68075;BME280;54864;52.002;5.468;2023-01-26T00:26:10;102396.97;;;1.58;83.81
68075;BME280;54864;52.002;5.468;2023-01-26T00:27:13;102392.53;;;1.51;83.41
68075;BME280;54864;52.002;5.468;2023-01-26T00:28:14;102375.16;;;1.49;83.61
68075;BME280;54864;52.002;5.468;2023-01-26T00:29:16;102391.84;;;1.62;83.52
68075;BME280;54864;52.002;5.468;2023-01-26T00:30:17;102393.59;;;1.63;82.87
68075;BME280;54864;52.002;5.468;2023-01-26T00:31:20;102390.16;;;1.65;82.83
68075;BME280;54864;52.002;5.468;2023-01-26T00:32:21;102394.47;;;1.63;82.76
68075;BME280;54864;52.002;5.468;2023-01-26T00:33:23;102382.22;;;1.57;82.86
68075;BME280;54864;52.002;5.468;2023-01-26T00:34:24;102383.19;;;1.63;82.73
68075;BME280;54864;52.002;5.468;2023-01-26T00:35:25;102387.38;;;1.54;83.30
68075;BME280;54864;52.002;5.468;2023-01-26T00:36:26;102396.22;;;1.66;83.10
68075;BME280;54864;52.002;5.468;2023-01-26T00:37:28;102395.38;;;1.67;83.30
68075;BME280;54864;52.002;5.468;2023-01-26T00:38:30;102383.22;;;1.64;82.80
68075;BME280;54864;52.002;5.468;2023-01-26T00:39:32;102387.59;;;1.68;82.86
68075;BME280;54864;52.002;5.468;2023-01-26T00:40:33;102387.56;;;1.65;82.64
68075;BME280;54864;52.002;5.468;2023-01-26T00:41:35;102381.56;;;1.69;82.49
68075;BME280;54864;52.002;5.468;2023-01-26T00:42:53;102379.97;;;1.79;82.44
68075;BME280;54864;52.002;5.468;2023-01-26T00:43:55;102381.59;;;1.71;82.46
68075;BME280;54864;52.002;5.468;2023-01-26T00:44:56;102381.59;;;1.72;82.56
68075;BME280;54864;52.002;5.468;2023-01-26T00:45:58;102371.97;;;1.65;82.52
68075;BME280;54864;52.002;5.468;2023-01-26T00:46:58;102380.44;;;1.53;82.29
68075;BME280;54864;52.002;5.468;2023-01-26T00:48:00;102370.97;;;1.57;82.69
68075;BME280;54864;52.002;5.468;2023-01-26T00:49:01;102377.03;;;1.57;82.54
68075;BME280;54864;52.002;5.468;2023-01-26T00:50:03;102381.25;;;1.51;82.58
68075;BME280;54864;52.002;5.468;2023-01-26T00:51:04;102382.00;;;1.44;83.16
68075;BME280;54864;52.002;5.468;2023-01-26T00:52:06;102387.03;;;1.35;83.38
68075;BME280;54864;52.002;5.468;2023-01-26T00:53:08;102386.25;;;1.39;84.06
68075;BME280;54864;52.002;5.468;2023-01-26T00:54:11;102377.72;;;1.47;83.94
68075;BME280;54864;52.002;5.468;2023-01-26T00:55:11;102382.13;;;1.51;83.54
68075;BME280;54864;52.002;5.468;2023-01-26T00:56:13;102377.03;;;1.57;83.85
68075;BME280;54864;52.002;5.468;2023-01-26T00:57:14;102369.25;;;1.59;83.28
68075;BME280;54864;52.002;5.468;2023-01-26T00:58:16;102383.22;;;1.66;83.67
68075;BME280;54864;52.002;5.468;2023-01-26T00:59:16;102385.84;;;1.67;83.29
68075;BME280;54864;52.002;5.468;2023-01-26T01:00:18;102381.41;;;1.60;83.24
68075;BME280;54864;52.002;5.468;2023-01-26T01:01:19;102387.59;;;1.68;83.37
68075;BME280;54864;52.002;5.468;2023-01-26T01:02:21;102395.47;;;1.71;83.20
68075;BME280;54864;52.002;5.468;2023-01-26T01:03:22;102385.16;;;1.77;82.81
68075;BME280;54864;52.002;5.468;2023-01-26T01:04:24;102392.06;;;1.77;83.00
68075;BME280;54864;52.002;5.468;2023-01-26T01:05:26;102388.25;;;1.55;83.15
68075;BME280;54864;52.002;5.468;2023-01-26T01:06:28;102385.72;;;1.58;83.15
68075;BME280;54864;52.002;5.468;2023-01-26T01:07:28;102383.09;;;1.56;83.20
68075;BME280;54864;52.002;5.468;2023-01-26T01:08:30;102382.09;;;1.48;83.50
68075;BME280;54864;52.002;5.468;2023-01-26T01:09:32;102375.38;;;1.63;83.47
68075;BME280;54864;52.002;5.468;2023-01-26T01:10:34;102371.88;;;1.59;83.28
68075;BME280;54864;52.002;5.468;2023-01-26T01:11:35;102375.47;;;1.67;83.32
68075;BME280;54864;52.002;5.468;2023-01-26T01:12:37;102374.72;;;1.74;82.87
68075;BME280;54864;52.002;5.468;2023-01-26T01:13:38;102372.09;;;1.74;83.19
68075;BME280;54864;52.002;5.468;2023-01-26T01:14:40;102370.38;;;1.75;82.93
68075;BME280;54864;52.002;5.468;2023-01-26T01:15:41;102375.63;;;1.78;83.04
68075;BME280;54864;52.002;5.468;2023-01-26T01:16:43;102374.00;;;1.84;82.50
68075;BME280;54864;52.002;5.468;2023-01-26T01:17:45;102369.66;;;1.83;82.68
68075;BME280;54864;52.002;5.468;2023-01-26T01:18:47;102366.94;;;1.77;82.40
68075;BME280;54864;52.002;5.468;2023-01-26T01:19:48;102374.03;;;1.87;82.42
68075;BME280;54864;52.002;5.468;2023-01-26T01:20:50;102366.16;;;1.83;82.37
68075;BME280;54864;52.002;5.468;2023-01-26T01:21:50;102375.69;;;1.81;82.28
68075;BME280;54864;52.002;5.468;2023-01-26T01:22:52;102367.88;;;1.81;82.58
68075;BME280;54864;52.002;5.468;2023-01-26T01:23:53;102366.16;;;1.81;82.49
68075;BME280;54864;52.002;5.468;2023-01-26T01:24:56;102379.22;;;1.86;82.66
68075;BME280;54864;52.002;5.468;2023-01-26T01:25:57;102379.34;;;1.94;82.25
68075;BME280;54864;52.002;5.468;2023-01-26T01:26:59;102363.66;;;1.89;82.04
68075;BME280;54864;52.002;5.468;2023-01-26T01:28:01;102375.59;;;1.76;82.27
68075;BME280;54864;52.002;5.468;2023-01-26T01:29:02;102371.25;;;1.75;82.55
68075;BME280;54864;52.002;5.468;2023-01-26T01:30:04;102377.25;;;1.71;82.77
68075;BME280;54864;52.002;5.468;2023-01-26T01:31:08;102371.06;;;1.63;82.71
68075;BME280;54864;52.002;5.468;2023-01-26T01:32:10;102374.63;;;1.70;82.75
68075;BME280;54864;52.002;5.468;2023-01-26T01:33:11;102372.94;;;1.72;83.12
68075;BME280;54864;52.002;5.468;2023-01-26T01:34:13;102370.22;;;1.66;83.31
68075;BME280;54864;52.002;5.468;2023-01-26T01:35:14;102376.09;;;1.54;83.71
68075;BME280;54864;52.002;5.468;2023-01-26T01:36:16;102372.91;;;1.70;83.91
68075;BME280;54864;52.002;5.468;2023-01-26T01:37:16;102373.03;;;1.78;83.20
68075;BME280;54864;52.002;5.468;2023-01-26T01:38:18;102366.63;;;1.56;83.50
68075;BME280;54864;52.002;5.468;2023-01-26T01:39:19;102372.00;;;1.68;83.66
68075;BME280;54864;52.002;5.468;2023-01-26T01:40:22;102354.81;;;1.76;83.05
68075;BME280;54864;52.002;5.468;2023-01-26T01:41:23;102362.69;;;1.81;82.82
68075;BME280;54864;52.002;5.468;2023-01-26T01:42:25;102360.19;;;1.88;82.52
68075;BME280;54864;52.002;5.468;2023-01-26T01:43:27;102362.84;;;1.91;82.57
68075;BME280;54864;52.002;5.468;2023-01-26T01:44:29;102361.22;;;1.98;82.13
68075;BME280;54864;52.002;5.468;2023-01-26T01:45:41;102363.00;;;2.01;81.96
68075;BME280;54864;52.002;5.468;2023-01-26T01:46:46;102358.47;;;1.89;82.14
68075;BME280;54864;52.002;5.468;2023-01-26T01:47:49;102357.81;;;2.01;81.81
68075;BME280;54864;52.002;5.468;2023-01-26T01:48:52;102361.13;;;1.92;82.25
68075;BME280;54864;52.002;5.468;2023-01-26T01:49:57;102349.06;;;1.96;82.44
68075;BME280;54864;52.002;5.468;2023-01-26T01:51:04;102361.13;;;1.94;81.57
68075;BME280;54864;52.002;5.468;2023-01-26T01:52:09;102359.38;;;1.92;82.35
68075;BME280;54864;52.002;5.468;2023-01-26T01:53:16;102356.06;;;2.00;81.78
68075;BME280;54864;52.002;5.468;2023-01-26T01:54:22;102356.94;;;2.00;80.99
68075;BME280;54864;52.002;5.468;2023-01-26T01:55:29;102352.34;;;1.85;81.53
68075;BME280;54864;52.002;5.468;2023-01-26T01:56:32;102354.78;;;1.75;82.22
68075;BME280;54864;52.002;5.468;2023-01-26T01:57:36;102350.59;;;1.84;82.21
68075;BME280;54864;52.002;5.468;2023-01-26T01:58:48;102355.78;;;1.84;82.59
68075;BME280;54864;52.002;5.468;2023-01-26T01:59:55;102342.84;;;1.87;82.53
68075;BME280;54864;52.002;5.468;2023-01-26T02:00:59;102350.84;;;1.98;81.80
68075;BME280;54864;52.002;5.468;2023-01-26T02:02:01;102349.75;;;1.85;82.01
68075;BME280;54864;52.002;5.468;2023-01-26T02:03:05;102344.66;;;1.93;82.02
68075;BME280;54864;52.002;5.468;2023-01-26T02:04:16;102340.25;;;1.87;82.16
68075;BME280;54864;52.002;5.468;2023-01-26T02:05:25;102342.91;;;1.92;82.19
68075;BME280;54864;52.002;5.468;2023-01-26T02:06:32;102340.44;;;1.98;81.81
68075;BME280;54864;52.002;5.468;2023-01-26T02:07:36;102342.19;;;2.01;81.69
68075;BME280;54864;52.002;5.468;2023-01-26T02:08:39;102338.59;;;1.92;81.26
68075;BME280;54864;52.002;5.468;2023-01-26T02:09:44;102335.97;;;1.92;81.67
68075;BME280;54864;52.002;5.468;2023-01-26T02:11:07;102336.84;;;1.91;81.59
68075;BME280;54864;52.002;5.468;2023-01-26T02:12:11;102337.66;;;1.89;81.54
68075;BME280;54864;52.002;5.468;2023-01-26T02:13:15;102341.25;;;1.96;81.78
68075;BME280;54864;52.002;5.468;2023-01-26T02:14:17;102340.47;;;2.01;81.23
68075;BME280;54864;52.002;5.468;2023-01-26T02:15:18;102329.81;;;1.86;81.27
68075;BME280;54864;52.002;5.468;2023-01-26T02:16:20;102332.44;;;1.87;81.58
68075;BME280;54864;52.002;5.468;2023-01-26T02:17:21;102328.94;;;1.85;82.12
68075;BME280;54864;52.002;5.468;2023-01-26T02:18:23;102343.44;;;1.70;82.52
68075;BME280;54864;52.002;5.468;2023-01-26T02:19:29;102334.84;;;1.74;82.75
68075;BME280;54864;52.002;5.468;2023-01-26T02:20:40;102331.50;;;1.82;82.74
68075;BME280;54864;52.002;5.468;2023-01-26T02:21:43;102327.00;;;1.71;82.76
68075;BME280;54864;52.002;5.468;2023-01-26T02:22:53;102332.31;;;1.80;82.34
68075;BME280;54864;52.002;5.468;2023-01-26T02:24:08;102336.72;;;1.84;82.77
68075;BME280;54864;52.002;5.468;2023-01-26T02:25:18;102329.06;;;1.95;82.34
68075;BME280;54864;52.002;5.468;2023-01-26T02:26:27;102329.97;;;1.95;81.76
68075;BME280;54864;52.002;5.468;2023-01-26T02:27:29;102338.56;;;1.91;81.79
68075;BME280;54864;52.002;5.468;2023-01-26T02:28:30;102338.56;;;1.91;81.88
68075;BME280;54864;52.002;5.468;2023-01-26T02:29:33;102334.88;;;1.77;81.91
68075;BME280;54864;52.002;5.468;2023-01-26T02:30:33;102333.09;;;1.74;81.84
68075;BME280;54864;52.002;5.468;2023-01-26T02:31:35;102333.22;;;1.82;82.27
68075;BME280;54864;52.002;5.468;2023-01-26T02:32:37;102345.50;;;1.92;81.74
68075;BME280;54864;52.002;5.468;2023-01-26T02:33:39;102328.78;;;1.75;82.07
68075;BME280;54864;52.002;5.468;2023-01-26T02:34:41;102330.56;;;1.77;82.14
68075;BME280;54864;52.002;5.468;2023-01-26T02:35:41;102328.84;;;1.79;82.83
68075;BME280;54864;52.002;5.468;2023-01-26T02:36:43;102330.56;;;1.77;82.26
68075;BME280;54864;52.002;5.468;2023-01-26T02:37:44;102325.41;;;1.80;82.22
68075;BME280;54864;52.002;5.468;2023-01-26T02:38:52;102328.97;;;1.88;82.11
68075;BME280;54864;52.002;5.468;2023-01-26T02:39:58;102329.06;;;1.95;81.27
68075;BME280;54864;52.002;5.468;2023-01-26T02:41:03;102337.72;;;1.92;81.90
68075;BME280;54864;52.002;5.468;2023-01-26T02:42:06;102335.81;;;1.82;81.85
68075;BME280;54864;52.002;5.468;2023-01-26T02:43:26;102338.50;;;1.88;82.06
68075;BME280;54864;52.002;5.468;2023-01-26T02:44:29;102340.38;;;1.95;81.95
68075;BME280;54864;52.002;5.468;2023-01-26T02:45:31;102335.97;;;1.92;81.26
68075;BME280;54864;52.002;5.468;2023-01-26T02:46:34;102337.63;;;1.86;82.01
68075;BME280;54864;52.002;5.468;2023-01-26T02:47:35;102337.53;;;1.80;82.43
68075;BME280;54864;52.002;5.468;2023-01-26T02:48:36;102337.59;;;1.84;82.33
68075;BME280;54864;52.002;5.468;2023-01-26T02:49:56;102335.97;;;1.91;82.54
68075;BME280;54864;52.002;5.468;2023-01-26T02:50:58;102332.66;;;2.00;82.02
68075;BME280;54864;52.002;5.468;2023-01-26T02:51:58;102343.06;;;2.01;81.78
68075;BME280;54864;52.002;5.468;2023-01-26T02:53:00;102340.56;;;2.09;81.05
68075;BME280;54864;52.002;5.468;2023-01-26T02:54:03;102334.38;;;1.99;81.56
68075;BME280;54864;52.002;5.468;2023-01-26T02:55:04;102331.84;;;2.04;81.57
68075;BME280;54864;52.002;5.468;2023-01-26T02:56:24;102333.75;;;2.17;81.33
68075;BME280;54864;52.002;5.468;2023-01-26T02:57:26;102339.88;;;2.20;80.84
68075;BME280;54864;52.002;5.468;2023-01-26T02:58:28;102338.19;;;2.24;80.82
68075;BME280;54864;52.002;5.468;2023-01-26T02:59:30;102329.53;;;2.25;80.64
68075;BME280;54864;52.002;5.468;2023-01-26T03:00:32;102334.72;;;2.25;80.64
68075;BME280;54864;52.002;5.468;2023-01-26T03:01:36;102344.06;;;2.11;80.76
68075;BME280;54864;52.002;5.468;2023-01-26T03:02:37;102338.78;;;2.05;81.10
68075;BME280;54864;52.002;5.468;2023-01-26T03:03:40;102348.34;;;2.07;81.21
68075;BME280;54864;52.002;5.468;2023-01-26T03:04:41;102345.75;;;2.06;81.63
68075;BME280;54864;52.002;5.468;2023-01-26T03:05:43;102337.00;;;2.02;81.32
68075;BME280;54864;52.002;5.468;2023-01-26T03:06:44;102341.19;;;1.92;81.65
68075;BME280;54864;52.002;5.468;2023-01-26T03:07:46;102336.88;;;1.95;81.78
68075;BME280;54864;52.002;5.468;2023-01-26T03:08:46;102340.44;;;1.98;82.11
68075;BME280;54864;52.002;5.468;2023-01-26T03:09:48;102336.94;;;1.98;82.31
68075;BME280;54864;52.002;5.468;2023-01-26T03:10:49;102340.56;;;2.07;82.16
68075;BME280;54864;52.002;5.468;2023-01-26T03:11:51;102343.19;;;2.09;82.19
68075;BME280;54864;52.002;5.468;2023-01-26T03:12:53;102345.00;;;2.16;81.66
68075;BME280;54864;52.002;5.468;2023-01-26T03:13:55;102335.53;;;2.21;81.05
68075;BME280;54864;52.002;5.468;2023-01-26T03:14:56;102341.53;;;2.15;81.59
68075;BME280;54864;52.002;5.468;2023-01-26T03:16:11;102339.72;;;2.10;82.03
68075;BME280;54864;52.002;5.468;2023-01-26T03:17:17;102338.09;;;2.16;81.85
68075;BME280;54864;52.002;5.468;2023-01-26T03:18:19;102344.81;;;2.02;82.00
68075;BME280;54864;52.002;5.468;2023-01-26T03:19:41;102344.09;;;2.12;81.95
68075;BME280;54864;52.002;5.468;2023-01-26T03:21:01;102349.28;;;2.12;82.22
68075;BME280;54864;52.002;5.468;2023-01-26T03:22:20;102352.78;;;2.14;81.79
68075;BME280;54864;52.002;5.468;2023-01-26T03:23:40;102345.13;;;2.25;81.71
68075;BME280;54864;52.002;5.468;2023-01-26T03:24:59;102348.66;;;2.29;81.35
68075;BME280;54864;52.002;5.468;2023-01-26T03:26:24;102346.88;;;2.26;81.84
68075;BME280;54864;52.002;5.468;2023-01-26T03:27:44;102348.53;;;2.21;81.14
68075;BME280;54864;52.002;5.468;2023-01-26T03:28:48;102353.66;;;2.13;81.46
68075;BME280;54864;52.002;5.468;2023-01-26T03:29:48;102345.06;;;2.20;81.56
68075;BME280;54864;52.002;5.468;2023-01-26T03:30:52;102348.69;;;2.32;81.16
68075;BME280;54864;52.002;5.468;2023-01-26T03:31:54;102345.28;;;2.36;80.91
68075;BME280;54864;52.002;5.468;2023-01-26T03:32:55;102348.56;;;2.22;81.25
68075;BME280;54864;52.002;5.468;2023-01-26T03:33:58;102348.47;;;2.15;81.95
68075;BME280;54864;52.002;5.468;2023-01-26T03:34:59;102338.13;;;2.19;81.88
68075;BME280;54864;52.002;5.468;2023-01-26T03:36:01;102344.16;;;2.17;81.55
68075;BME280;54864;52.002;5.468;2023-01-26T03:37:02;102344.22;;;2.21;81.17
68075;BME280;54864;52.002;5.468;2023-01-26T03:38:04;102350.19;;;2.14;81.31
68075;BME280;54864;52.002;5.468;2023-01-26T03:39:04;102350.19;;;2.14;81.84
68075;BME280;54864;52.002;5.468;2023-01-26T03:40:08;102339.56;;;1.99;82.03
68075;BME280;54864;52.002;5.468;2023-01-26T03:41:27;102339.66;;;2.05;81.93
68075;BME280;54864;52.002;5.468;2023-01-26T03:42:46;102345.09;;;2.22;81.84
68075;BME280;54864;52.002;5.468;2023-01-26T03:44:06;102337.28;;;2.22;81.81
68075;BME280;54864;52.002;5.468;2023-01-26T03:45:25;102338.34;;;2.36;81.50
68075;BME280;54864;52.002;5.468;2023-01-26T03:46:45;102333.94;;;2.31;81.27
68075;BME280;54864;52.002;5.468;2023-01-26T03:48:05;102340.88;;;2.30;81.67
68075;BME280;54864;52.002;5.468;2023-01-26T03:49:25;102342.75;;;2.42;81.23
68075;BME280;54864;52.002;5.468;2023-01-26T03:50:44;102331.44;;;2.40;80.50
68075;BME280;54864;52.002;5.468;2023-01-26T03:52:04;102339.22;;;2.38;80.75
68075;BME280;54864;52.002;5.468;2023-01-26T03:53:23;102334.94;;;2.42;81.09
68075;BME280;54864;52.002;5.468;2023-01-26T03:54:42;102337.63;;;2.48;81.04
68075;BME280;54864;52.002;5.468;2023-01-26T03:56:03;102329.78;;;2.46;80.45
68075;BME280;54864;52.002;5.468;2023-01-26T03:57:22;102337.63;;;2.48;80.75
68075;BME280;54864;52.002;5.468;2023-01-26T03:58:22;102332.38;;;2.45;80.91
68075;BME280;54864;52.002;5.468;2023-01-26T03:59:26;102335.81;;;2.42;81.18
68075;BME280;54864;52.002;5.468;2023-01-26T04:00:38;102335.78;;;2.41;81.30
68075;BME280;54864;52.002;5.468;2023-01-26T04:01:40;102334.91;;;2.40;80.77
68075;BME280;54864;52.002;5.468;2023-01-26T04:02:56;102327.88;;;2.33;81.29
68075;BME280;54864;52.002;5.468;2023-01-26T04:04:15;102330.53;;;2.36;81.32
68075;BME280;54864;52.002;5.468;2023-01-26T04:05:35;102334.72;;;2.23;81.75
68075;BME280;54864;52.002;5.468;2023-01-26T04:06:54;102326.88;;;2.22;82.01
68075;BME280;54864;52.002;5.468;2023-01-26T04:08:13;102324.25;;;2.19;82.15
68075;BME280;54864;52.002;5.468;2023-01-26T04:09:21;102327.66;;;2.16;82.60
68075;BME280;54864;52.002;5.468;2023-01-26T04:10:22;102329.28;;;2.07;82.24
68075;BME280;54864;52.002;5.468;2023-01-26T04:11:24;102337.00;;;2.02;82.30
68075;BME280;54864;52.002;5.468;2023-01-26T04:12:24;102329.22;;;2.04;82.72
68075;BME280;54864;52.002;5.468;2023-01-26T04:13:26;102333.63;;;2.08;83.10
68075;BME280;54864;52.002;5.468;2023-01-26T04:14:47;102329.41;;;2.16;82.58
68075;BME280;54864;52.002;5.468;2023-01-26T04:16:08;102326.88;;;2.22;82.52
68075;BME280;54864;52.002;5.468;2023-01-26T04:17:27;102330.50;;;2.33;82.49
68075;BME280;54864;52.002;5.468;2023-01-26T04:18:46;102326.06;;;2.26;82.21
68075;BME280;54864;52.002;5.468;2023-01-26T04:20:06;102331.34;;;2.32;82.05
68075;BME280;54864;52.002;5.468;2023-01-26T04:21:26;102332.28;;;2.39;81.98
68075;BME280;54864;52.002;5.468;2023-01-26T04:22:28;102332.25;;;2.34;81.92
68075;BME280;54864;52.002;5.468;2023-01-26T04:23:30;102335.69;;;2.32;82.25
68075;BME280;54864;52.002;5.468;2023-01-26T04:24:31;102334.91;;;2.39;82.28
68075;BME280;54864;52.002;5.468;2023-01-26T04:25:32;102339.28;;;2.41;81.48
68075;BME280;54864;52.002;5.468;2023-01-26T04:26:33;102340.09;;;2.37;81.08
68075;BME280;54864;52.002;5.468;2023-01-26T04:27:36;102334.88;;;2.37;81.70
68075;BME280;54864;52.002;5.468;2023-01-26T04:28:36;102334.81;;;2.33;81.59
68075;BME280;54864;52.002;5.468;2023-01-26T04:29:38;102337.47;;;2.36;81.87
68075;BME280;54864;52.002;5.468;2023-01-26T04:30:40;102342.66;;;2.34;81.58
68075;BME280;54864;52.002;5.468;2023-01-26T04:31:42;102341.88;;;2.41;81.62
68075;BME280;54864;52.002;5.468;2023-01-26T04:32:44;102340.19;;;2.46;81.25
68075;BME280;54864;52.002;5.468;2023-01-26T04:33:46;102342.75;;;2.43;81.07
68075;BME280;54864;52.002;5.468;2023-01-26T04:34:47;102334.19;;;2.50;81.14
68075;BME280;54864;52.002;5.468;2023-01-26T04:35:48;102335.06;;;2.52;80.99
68075;BME280;54864;52.002;5.468;2023-01-26T04:36:49;102331.66;;;2.58;81.26
68075;BME280;54864;52.002;5.468;2023-01-26T04:37:51;102329.06;;;2.60;80.76
68075;BME280;54864;52.002;5.468;2023-01-26T04:38:52;102332.50;;;2.55;80.83
68075;BME280;54864;52.002;5.468;2023-01-26T04:39:53;102319.59;;;2.63;81.21
68075;BME280;54864;52.002;5.468;2023-01-26T04:40:54;102336.13;;;2.67;80.47
68075;BME280;54864;52.002;5.468;2023-01-26T04:41:56;102322.94;;;2.53;80.22
68075;BME280;54864;52.002;5.468;2023-01-26T04:42:58;102328.94;;;2.49;80.70
68075;BME280;54864;52.002;5.468;2023-01-26T04:43:59;102321.22;;;2.55;80.55
68075;BME280;54864;52.002;5.468;2023-01-26T04:45:00;102330.84;;;2.61;80.83
68075;BME280;54864;52.002;5.468;2023-01-26T04:46:04;102326.53;;;2.61;80.50
68075;BME280;54864;52.002;5.468;2023-01-26T04:47:07;102333.47;;;2.62;80.46
68075;BME280;54864;52.002;5.468;2023-01-26T04:48:08;102329.16;;;2.64;80.79
68075;BME280;54864;52.002;5.468;2023-01-26T04:49:09;102326.56;;;2.64;80.85
68075;BME280;54864;52.002;5.468;2023-01-26T04:50:10;102323.91;;;2.61;81.11
68075;BME280;54864;52.002;5.468;2023-01-26T04:51:13;102327.47;;;2.69;81.02
68075;BME280;54864;52.002;5.468;2023-01-26T04:52:14;102329.16;;;2.64;80.71
68075;BME280;54864;52.002;5.468;2023-01-26T04:53:16;102333.53;;;2.68;81.00
68075;BME280;54864;52.002;5.468;2023-01-26T04:54:17;102326.63;;;2.70;80.48
68075;BME280;54864;52.002;5.468;2023-01-26T04:55:19;102327.28;;;2.55;81.04
68075;BME280;54864;52.002;5.468;2023-01-26T04:56:22;102322.25;;;2.66;80.61
68075;BME280;54864;52.002;5.468;2023-01-26T04:57:24;102324.84;;;2.66;80.43
68075;BME280;54864;52.002;5.468;2023-01-26T04:58:25;102324.03;;;2.70;80.72
68075;BME280;54864;52.002;5.468;2023-01-26T04:59:27;102321.44;;;2.72;80.43
68075;BME280;54864;52.002;5.468;2023-01-26T05:00:27;102321.47;;;2.76;80.16
68075;BME280;54864;52.002;5.468;2023-01-26T05:01:31;102324.91;;;2.72;80.85
68075;BME280;54864;52.002;5.468;2023-01-26T05:02:31;102320.63;;;2.76;80.79
68075;BME280;54864;52.002;5.468;2023-01-26T05:03:33;102317.19;;;2.80;80.25
68075;BME280;54864;52.002;5.468;2023-01-26T05:04:34;102321.50;;;2.79;79.70
68075;BME280;54864;52.002;5.468;2023-01-26T05:05:36;102324.13;;;2.81;80.12
68075;BME280;54864;52.002;5.468;2023-01-26T05:06:37;102316.31;;;2.81;80.42
68075;BME280;54864;52.002;5.468;2023-01-26T05:07:41;102320.72;;;2.85;79.64
68075;BME280;54864;52.002;5.468;2023-01-26T05:08:42;102319.84;;;2.86;79.43
68075;BME280;54864;52.002;5.468;2023-01-26T05:09:44;102316.34;;;2.82;80.22
68075;BME280;54864;52.002;5.468;2023-01-26T05:10:45;102315.44;;;2.79;80.09
68075;BME280;54864;52.002;5.468;2023-01-26T05:11:47;102318.00;;;2.74;79.95
68075;BME280;54864;52.002;5.468;2023-01-26T05:12:47;102313.66;;;2.75;80.04
68075;BME280;54864;52.002;5.468;2023-01-26T05:13:49;102313.72;;;2.81;80.18
68075;BME280;54864;52.002;5.468;2023-01-26T05:14:50;102312.81;;;2.76;80.04
68075;BME280;54864;52.002;5.468;2023-01-26T05:15:52;102311.06;;;2.75;79.82
68075;BME280;54864;52.002;5.468;2023-01-26T05:16:54;102311.09;;;2.78;80.58
68075;BME280;54864;52.002;5.468;2023-01-26T05:17:56;102311.88;;;2.71;80.41
68075;BME280;54864;52.002;5.468;2023-01-26T05:18:57;102306.69;;;2.74;80.97
68075;BME280;54864;52.002;5.468;2023-01-26T05:19:59;102310.16;;;2.73;80.51
68075;BME280;54864;52.002;5.468;2023-01-26T05:21:00;102312.69;;;2.67;80.08
68075;BME280;54864;52.002;5.468;2023-01-26T05:22:02;102311.06;;;2.76;80.19
68075;BME280;54864;52.002;5.468;2023-01-26T05:23:03;102309.41;;;2.83;80.38
68075;BME280;54864;52.002;5.468;2023-01-26T05:24:06;102306.75;;;2.80;80.48
68075;BME280;54864;52.002;5.468;2023-01-26T05:25:08;102317.16;;;2.77;80.36
68075;BME280;54864;52.002;5.468;2023-01-26T05:26:09;102307.63;;;2.79;80.33
68075;BME280;54864;52.002;5.468;2023-01-26T05:27:10;102309.38;;;2.80;79.97
68075;BME280;54864;52.002;5.468;2023-01-26T05:28:24;102308.44;;;2.73;80.01
68075;BME280;54864;52.002;5.468;2023-01-26T05:29:25;102309.28;;;2.71;80.01
68075;BME280;54864;52.002;5.468;2023-01-26T05:30:26;102310.25;;;2.80;80.58
68075;BME280;54864;52.002;5.468;2023-01-26T05:31:27;102305.88;;;2.78;80.45
68075;BME280;54864;52.002;5.468;2023-01-26T05:32:30;102309.31;;;2.74;80.13
68075;BME280;54864;52.002;5.468;2023-01-26T05:33:31;102310.19;;;2.74;80.13
68075;BME280;54864;52.002;5.468;2023-01-26T05:34:33;102313.72;;;2.81;80.18
68075;BME280;54864;52.002;5.468;2023-01-26T05:35:34;102310.25;;;2.80;80.63
68075;BME280;54864;52.002;5.468;2023-01-26T05:36:36;102312.84;;;2.80;80.59
68075;BME280;54864;52.002;5.468;2023-01-26T05:37:37;102309.38;;;2.81;80.05
68075;BME280;54864;52.002;5.468;2023-01-26T05:38:38;102311.97;;;2.78;80.12
68075;BME280;54864;52.002;5.468;2023-01-26T05:39:40;102309.41;;;2.84;80.72
68075;BME280;54864;52.002;5.468;2023-01-26T05:40:40;102301.66;;;2.91;80.28